Time;durP1;ratioP1;P1;durP2;ratioP2;P2;SDS_P1;SDS_P2;PMS_P1;PMS_P2;Temp;Humidity;BMP_temperature;BMP_pressure;BME280_temperature;BME280_humidity;BME280_pressure;Samples;Min_cycle;Max_cycle;Signal;HPM_P1;HPM_P2
2023/10/11 00:02:59;;;;;;;;;;;17.70;99.90;;;;;;5062880;28;19916;-63
2023/10/11 00:05:27;;;;;;;;;;;17.70;99.90;;;;;;5066097;28;19924;-62
2023/10/11 00:07:58;;;;;;;;;;;17.80;99.90;;;;;;5064540;28;20434;-64
2023/10/11 00:10:23;;;;;;;;;;;17.70;99.90;;;;;;5067081;28;19947;-62
2023/10/11 00:12:50;;;;;;;;;;;17.70;99.90;;;;;;5063087;28;20368;-63
2023/10/11 00:15:16;;;;;;;;;;;17.70;99.90;;;;;;5066077;28;20398;-64
2023/10/11 00:17:46;;;;;;;;;;;17.70;99.90;;;;;;5065228;28;20283;-63
2023/10/11 00:20:29;;;;;;;;;;;17.70;99.90;;;;;;5067522;28;20349;-62
2023/10/11 00:22:55;;;;;;;;;;;17.70;99.90;;;;;;5068345;28;19938;-63
2023/10/11 00:25:24;;;;;;;;;;;17.70;99.90;;;;;;5068944;28;20296;-63
2023/10/11 00:27:56;;;;;;;;;;;17.70;99.90;;;;;;5067043;28;19928;-63
2023/10/11 00:30:22;;;;;;;;;;;17.80;99.90;;;;;;5068181;28;20443;-63
2023/10/11 00:32:47;;;;;;;;;;;17.70;99.90;;;;;;5067532;28;20007;-63
2023/10/11 00:35:20;;;;;;;;;;;17.70;99.90;;;;;;5067733;28;19963;-64
2023/10/11 00:37:49;;;;;;;;;;;17.70;99.90;;;;;;5068139;28;19962;-62
2023/10/11 00:40:25;;;;;;;;;;;17.70;99.90;;;;;;5069943;28;19920;-63
2023/10/11 00:42:52;;;;;;;;;;;17.70;99.90;;;;;;5066053;28;19931;-63
2023/10/11 00:45:18;;;;;;;;;;;17.70;99.90;;;;;;5068287;28;20413;-63
2023/10/11 00:47:45;;;;;;;;;;;17.70;99.90;;;;;;5068934;28;20000;-62
2023/10/11 00:50:16;;;;;;;;;;;17.70;99.90;;;;;;5068041;28;20798;-62
2023/10/11 00:52:42;;;;;;;;;;;17.70;99.90;;;;;;5068569;28;20073;-62
2023/10/11 00:55:22;;;;;;;;;;;17.70;99.90;;;;;;5065166;28;19985;-63
2023/10/11 00:57:48;;;;;;;;;;;17.70;99.90;;;;;;5067873;28;20012;-62
2023/10/11 01:00:16;;;;;;;;;;;17.70;99.90;;;;;;5073129;28;19916;-62
2023/10/11 01:02:45;;;;;;;;;;;17.70;99.90;;;;;;5069372;28;19923;-63
2023/10/11 01:05:16;;;;;;;;;;;17.70;99.90;;;;;;5064694;28;20011;-63
2023/10/11 01:07:42;;;;;;;;;;;17.60;99.90;;;;;;5067846;28;19916;-62
2023/10/11 01:10:08;;;;;;;;;;;17.70;99.90;;;;;;5067681;28;19969;-63
2023/10/11 01:12:34;;;;;;;;;;;17.60;99.90;;;;;;5066286;28;20233;-63
2023/10/11 01:15:00;;;;;;;;;;;17.70;99.90;;;;;;5067589;28;20417;-63
2023/10/11 01:17:26;;;;;;;;;;;17.60;99.90;;;;;;5066008;28;19931;-63
2023/10/11 01:19:52;;;;;;;;;;;17.70;99.90;;;;;;5067245;28;19916;-63
2023/10/11 01:22:18;;;;;;;;;;;17.60;99.90;;;;;;5066918;28;20397;-63
2023/10/11 01:24:47;;;;;;;;;;;17.60;99.90;;;;;;5066898;28;19924;-63
2023/10/11 01:27:16;;;;;;;;;;;17.60;99.90;;;;;;5066835;28;19916;-62
2023/10/11 01:29:42;;;;;;;;;;;17.60;99.90;;;;;;5046590;28;19920;-62
2023/10/11 01:32:09;;;;;;;;;;;17.60;99.90;;;;;;5065915;28;19924;-63
2023/10/11 01:34:35;;;;;;;;;;;17.60;99.90;;;;;;5067671;28;19932;-63
2023/10/11 01:37:01;;;;;;;;;;;17.60;99.90;;;;;;5066612;28;20038;-63
2023/10/11 01:39:27;;;;;;;;;;;17.60;99.90;;;;;;5067379;28;20382;-62
2023/10/11 01:41:58;;;;;;;;;;;17.60;99.90;;;;;;5065915;28;19932;-63
2023/10/11 01:44:24;;;;;;;;;;;17.60;99.90;;;;;;5066364;28;19920;-63
2023/10/11 01:46:50;;;;;;;;;;;17.60;99.90;;;;;;5067646;28;20369;-62
2023/10/11 01:49:15;;;;;;;;;;;17.60;99.90;;;;;;5065385;28;19931;-62
2023/10/11 01:51:46;;;;;;;;;;;17.60;99.90;;;;;;5067026;28;19970;-63
2023/10/11 01:54:12;;;;;;;;;;;17.60;99.90;;;;;;5067450;28;19971;-63
2023/10/11 01:56:38;;;;;;;;;;;17.60;99.90;;;;;;5066186;28;19924;-63
2023/10/11 01:59:04;;;;;;;;;;;17.60;99.90;;;;;;5066283;28;20332;-63
2023/10/11 02:01:38;;;;;;;;;;;17.60;99.90;;;;;;5067056;28;19922;-62
2023/10/11 02:04:04;;;;;;;;;;;17.60;99.90;;;;;;5066354;28;19923;-63
2023/10/11 02:06:33;;;;;;;;;;;17.60;99.90;;;;;;5065872;28;19924;-63
2023/10/11 02:08:59;;;;;;;;;;;17.60;99.90;;;;;;5067388;28;20395;-62
2023/10/11 02:11:29;;;;;;;;;;;17.60;99.90;;;;;;5066937;28;20288;-63
2023/10/11 02:13:57;;;;;;;;;;;17.50;99.90;;;;;;5066039;28;19979;-63
2023/10/11 02:16:28;;;;;;;;;;;17.50;99.90;;;;;;5066827;28;19974;-63
2023/10/11 02:18:59;;;;;;;;;;;17.50;99.90;;;;;;5066207;28;20514;-63
2023/10/11 02:21:29;;;;;;;;;;;17.50;99.90;;;;;;5065832;28;19977;-62
2023/10/11 02:23:56;;;;;;;;;;;17.50;99.90;;;;;;5066080;28;19916;-63
2023/10/11 02:26:30;;;;;;;;;;;17.50;99.90;;;;;;5066537;28;20348;-63
2023/10/11 02:29:00;;;;;;;;;;;17.50;99.90;;;;;;5066079;28;19922;-63
2023/10/11 02:31:27;;;;;;;;;;;17.50;99.90;;;;;;5064904;28;19931;-63
2023/10/11 02:34:04;;;;;;;;;;;17.50;99.90;;;;;;5066229;28;19928;-62
2023/10/11 02:36:34;;;;;;;;;;;17.50;99.90;;;;;;5064024;28;19920;-62
2023/10/11 02:39:00;;;;;;;;;;;17.50;99.90;;;;;;5066041;28;19988;-62
2023/10/11 02:41:26;;;;;;;;;;;17.50;99.90;;;;;;5066309;28;19959;-63
2023/10/11 02:43:57;;;;;;;;;;;17.50;99.90;;;;;;5065010;28;19923;-63
2023/10/11 02:46:23;;;;;;;;;;;17.50;99.90;;;;;;5063333;28;19930;-62
2023/10/11 02:48:52;;;;;;;;;;;17.50;99.90;;;;;;5062042;28;19950;-62
2023/10/11 02:51:24;;;;;;;;;;;17.50;99.90;;;;;;5064965;28;20061;-63
2023/10/11 02:53:52;;;;;;;;;;;17.50;99.90;;;;;;5065866;28;19928;-62
2023/10/11 02:56:17;;;;;;;;;;;17.50;99.90;;;;;;5065995;28;20040;-62
2023/10/11 02:58:43;;;;;;;;;;;17.50;99.90;;;;;;5065136;28;20426;-62
2023/10/11 03:01:16;;;;;;;;;;;17.50;99.90;;;;;;5066011;28;19935;-63
2023/10/11 03:03:41;;;;;;;;;;;17.40;99.90;;;;;;5065751;28;20397;-62
2023/10/11 03:06:08;;;;;;;;;;;17.50;99.90;;;;;;5065141;28;19928;-62
2023/10/11 03:08:34;;;;;;;;;;;17.40;99.90;;;;;;5066911;28;20500;-62
2023/10/11 03:11:04;;;;;;;;;;;17.40;99.90;;;;;;5066186;28;19916;-62
2023/10/11 03:13:31;;;;;;;;;;;17.40;99.90;;;;;;5064671;28;20015;-62
2023/10/11 03:15:57;;;;;;;;;;;17.40;99.90;;;;;;5064314;28;19947;-62
2023/10/11 03:18:25;;;;;;;;;;;17.50;99.90;;;;;;5065828;28;19916;-62
2023/10/11 03:21:16;;;;;;;;;;;17.50;99.90;;;;;;5064584;28;19920;-62
2023/10/11 03:23:43;;;;;;;;;;;17.50;99.90;;;;;;5063537;28;19931;-63
2023/10/11 03:26:22;;;;;;;;;;;17.40;99.90;;;;;;5064247;28;19928;-62
2023/10/11 03:28:58;;;;;;;;;;;17.40;99.90;;;;;;5064291;28;19916;-63
2023/10/11 03:31:28;;;;;;;;;;;17.50;99.90;;;;;;5065691;28;19916;-63
2023/10/11 03:33:57;;;;;;;;;;;17.40;99.90;;;;;;5067274;28;19920;-63
2023/10/11 03:36:30;;;;;;;;;;;17.50;99.90;;;;;;5065828;28;20024;-63
2023/10/11 03:38:57;;;;;;;;;;;17.40;99.90;;;;;;5065894;28;19967;-63
2023/10/11 03:41:29;;;;;;;;;;;17.40;99.90;;;;;;5063792;28;21121;-63
2023/10/11 03:44:00;;;;;;;;;;;17.40;99.90;;;;;;5064286;28;20384;-63
2023/10/11 03:46:28;;;;;;;;;;;17.40;99.90;;;;;;5061763;28;19954;-63
2023/10/11 03:49:02;;;;;;;;;;;17.40;99.90;;;;;;5065285;28;20276;-63
2023/10/11 03:51:29;;;;;;;;;;;17.40;99.90;;;;;;5068230;28;19920;-63
2023/10/11 03:53:54;;;;;;;;;;;17.40;99.90;;;;;;5069001;28;19931;-63
2023/10/11 03:56:20;;;;;;;;;;;17.40;99.90;;;;;;5069251;28;19924;-63
2023/10/11 03:58:50;;;;;;;;;;;17.40;99.90;;;;;;5067119;28;20244;-63
2023/10/11 04:03:44;;;;;;;;;;;17.40;99.90;;;;;;5075333;28;19966;-63
2023/10/11 04:06:19;;;;;;;;;;;17.40;99.90;;;;;;5067736;28;19920;-63
2023/10/11 04:09:02;;;;;;;;;;;17.40;99.90;;;;;;5069378;28;19959;-62
2023/10/11 04:11:36;;;;;;;;;;;17.40;99.90;;;;;;5068399;28;19924;-63
2023/10/11 04:14:02;;;;;;;;;;;17.40;99.90;;;;;;5067391;28;19924;-63
2023/10/11 04:16:28;;;;;;;;;;;17.40;99.90;;;;;;5068597;28;19947;-65
2023/10/11 04:18:54;;;;;;;;;;;17.40;99.90;;;;;;5067030;28;20318;-63
2023/10/11 04:21:26;;;;;;;;;;;17.40;99.90;;;;;;5068368;28;19916;-62
2023/10/11 04:23:57;;;;;;;;;;;17.40;99.90;;;;;;5068217;28;19916;-63
2023/10/11 04:26:36;;;;;;;;;;;17.30;99.90;;;;;;5068717;28;19925;-63
2023/10/11 04:29:18;;;;;;;;;;;17.30;99.90;;;;;;5068088;28;20294;-62
2023/10/11 04:34:32;;;;;;;;;;;17.30;99.90;;;;;;5068073;28;20352;-61
2023/10/11 04:36:59;;;;;;;;;;;17.30;99.90;;;;;;5067782;28;20012;-62
2023/10/11 04:39:28;;;;;;;;;;;17.30;99.90;;;;;;5067704;28;19924;-62
2023/10/11 04:41:56;;;;;;;;;;;17.30;99.90;;;;;;5068628;28;20146;-62
2023/10/11 04:44:23;;;;;;;;;;;17.30;99.90;;;;;;5067037;28;19959;-61
2023/10/11 04:46:57;;;;;;;;;;;17.30;99.90;;;;;;5068023;28;19922;-63
2023/10/11 04:49:24;;;;;;;;;;;17.30;99.90;;;;;;5067291;28;20322;-62
2023/10/11 04:51:54;;;;;;;;;;;17.30;99.90;;;;;;5066635;28;19927;-62
2023/10/11 04:54:19;;;;;;;;;;;17.30;99.90;;;;;;5067790;28;20423;-62
2023/10/11 04:59:15;;;;;;;;;;;17.30;99.90;;;;;;5066535;28;20340;-63
2023/10/11 05:04:28;;;;;;;;;;;17.30;99.90;;;;;;5050896;28;19971;-63
2023/10/11 05:06:55;;;;;;;;;;;17.30;99.90;;;;;;5066971;28;19974;-63
2023/10/11 05:15:16;;;;;;;;;;;17.20;99.90;;;;;;5064475;28;20026;-63
2023/10/11 05:17:32;;;;;;;;;;;17.30;99.90;;;;;;5063605;28;19928;-62
2023/10/11 05:22:35;;;;;;;;;;;17.30;99.90;;;;;;5061129;28;19998;-63
2023/10/11 05:32:33;;;;;;;;;;;17.20;99.90;;;;;;5065816;28;19966;-62
2023/10/11 05:51:21;;;;;;;;;;;17.20;99.90;;;;;;5063101;28;20013;-62
2023/10/11 05:53:49;;;;;;;;;;;17.20;99.90;;;;;;5064981;28;19928;-62
2023/10/11 05:56:20;;;;;;;;;;;17.20;99.90;;;;;;5058820;28;19924;-62
2023/10/11 05:58:49;;;;;;;;;;;17.30;99.90;;;;;;5063498;28;19916;-62
2023/10/11 06:01:16;;;;;;;;;;;17.20;99.90;;;;;;5063785;28;19923;-62
2023/10/11 06:03:48;;;;;;;;;;;17.20;99.90;;;;;;5064799;28;20813;-62
2023/10/11 06:06:23;;;;;;;;;;;17.20;99.90;;;;;;5056234;28;19920;-64
2023/10/11 06:08:59;;;;;;;;;;;17.30;99.90;;;;;;5060789;28;19924;-62
2023/10/11 06:11:29;;;;;;;;;;;17.20;99.90;;;;;;5063976;28;20375;-63
2023/10/11 06:13:55;;;;;;;;;;;17.20;99.90;;;;;;5061049;28;20392;-62
2023/10/11 06:16:22;;;;;;;;;;;17.20;99.90;;;;;;5062245;28;19971;-63
2023/10/11 06:18:57;;;;;;;;;;;17.20;99.90;;;;;;5059656;28;19924;-62
2023/10/11 06:21:30;;;;;;;;;;;17.20;99.90;;;;;;5063974;28;19930;-63
2023/10/11 06:24:05;;;;;;;;;;;17.20;99.90;;;;;;5056917;28;20018;-63
2023/10/11 06:29:03;;;;;;;;;;;17.20;99.90;;;;;;5068751;28;19924;-62
2023/10/11 06:31:39;;;;;;;;;;;17.30;99.90;;;;;;5063403;28;19923;-63
2023/10/11 06:34:19;;;;;;;;;;;17.30;99.90;;;;;;5062391;28;19935;-63
2023/10/11 06:36:51;;;;;;;;;;;17.30;99.90;;;;;;5062030;28;19947;-63
2023/10/11 06:42:06;;;;;;;;;;;17.30;99.90;;;;;;5064766;28;20007;-62
2023/10/11 06:44:33;;;;;;;;;;;17.30;99.90;;;;;;5063961;28;20399;-63
2023/10/11 06:47:03;;;;;;;;;;;17.30;99.90;;;;;;5064333;28;20382;-62
2023/10/11 06:49:44;;;;;;;;;;;17.30;99.90;;;;;;5064126;28;19928;-63
2023/10/11 06:52:11;;;;;;;;;;;17.30;99.90;;;;;;5063383;28;19931;-63
2023/10/11 06:54:38;;;;;;;;;;;17.30;99.90;;;;;;5064572;28;19920;-63
2023/10/11 06:57:03;;;;;;;;;;;17.30;99.90;;;;;;5064760;28;20387;-62
2023/10/11 06:59:29;;;;;;;;;;;17.30;99.90;;;;;;5063080;28;20005;-63
2023/10/11 07:01:55;;;;;;;;;;;17.30;99.90;;;;;;5064648;28;19924;-63
2023/10/11 07:04:20;;;;;;;;;;;17.30;99.90;;;;;;5063445;28;20010;-63
2023/10/11 07:06:46;;;;;;;;;;;17.30;99.90;;;;;;5064486;28;19916;-63
2023/10/11 07:09:20;;;;;;;;;;;17.30;99.90;;;;;;5064398;28;19931;-63
2023/10/11 07:12:18;;;;;;;;;;;17.30;99.90;;;;;;5063573;28;19916;-63
2023/10/11 07:14:41;;;;;;;;;;;17.40;99.90;;;;;;5062671;28;19938;-63
2023/10/11 07:17:08;;;;;;;;;;;17.40;99.90;;;;;;5062439;28;19920;-63
2023/10/11 07:19:36;;;;;;;;;;;17.40;99.90;;;;;;5064845;28;19916;-63
2023/10/11 07:22:03;;;;;;;;;;;17.40;99.90;;;;;;5064529;28;19920;-63
2023/10/11 07:24:33;;;;;;;;;;;17.40;99.90;;;;;;5064386;28;19916;-63
2023/10/11 07:27:07;;;;;;;;;;;17.40;99.90;;;;;;5064791;28;19975;-62
2023/10/11 07:29:35;;;;;;;;;;;17.40;99.90;;;;;;5063313;28;20432;-63
2023/10/11 07:32:01;;;;;;;;;;;17.40;99.90;;;;;;5063547;28;19931;-63
2023/10/11 07:34:27;;;;;;;;;;;17.40;99.90;;;;;;5065202;28;19929;-62
2023/10/11 07:36:53;;;;;;;;;;;17.40;99.90;;;;;;5065362;28;19973;-62
2023/10/11 07:39:19;;;;;;;;;;;17.50;99.90;;;;;;5065513;28;19928;-63
2023/10/11 07:41:47;;;;;;;;;;;17.50;99.90;;;;;;5064570;28;19935;-63
2023/10/11 07:44:13;;;;;;;;;;;17.50;99.90;;;;;;5064002;28;20053;-63
2023/10/11 07:46:39;;;;;;;;;;;17.50;99.90;;;;;;5071714;28;20026;-63
2023/10/11 07:49:05;;;;;;;;;;;17.50;99.90;;;;;;5064351;28;19923;-63
2023/10/11 07:51:34;;;;;;;;;;;17.50;99.90;;;;;;5062830;28;19943;-63
2023/10/11 07:54:06;;;;;;;;;;;17.50;99.90;;;;;;5079306;28;19921;-63
2023/10/11 07:56:35;;;;;;;;;;;17.50;99.90;;;;;;5064099;28;19917;-62
2023/10/11 07:59:10;;;;;;;;;;;17.60;99.90;;;;;;5063604;28;19924;-63
2023/10/11 08:01:45;;;;;;;;;;;17.60;99.90;;;;;;5064413;28;19927;-63
2023/10/11 08:04:12;;;;;;;;;;;17.60;99.90;;;;;;5064330;28;19928;-63
2023/10/11 08:06:40;;;;;;;;;;;17.60;99.90;;;;;;5060821;28;20334;-62
2023/10/11 08:09:06;;;;;;;;;;;17.60;99.90;;;;;;5064429;28;19923;-63
2023/10/11 08:11:45;;;;;;;;;;;17.60;99.90;;;;;;5063363;28;19916;-63
2023/10/11 08:14:15;;;;;;;;;;;17.60;99.90;;;;;;5063467;28;19920;-63
2023/10/11 08:16:41;;;;;;;;;;;17.60;99.90;;;;;;5064058;28;20447;-63
2023/10/11 08:19:07;;;;;;;;;;;17.60;99.90;;;;;;5062844;28;19916;-63
2023/10/11 08:21:33;;;;;;;;;;;17.60;99.90;;;;;;5064064;28;19920;-63
2023/10/11 08:23:58;;;;;;;;;;;17.60;99.90;;;;;;5062406;28;20300;-62
2023/10/11 08:26:24;;;;;;;;;;;17.60;99.90;;;;;;5063600;28;19974;-62
2023/10/11 08:28:51;;;;;;;;;;;17.60;99.90;;;;;;5062897;28;20731;-63
2023/10/11 08:31:35;;;;;;;;;;;17.60;99.90;;;;;;5063971;28;19920;-62
2023/10/11 08:34:01;;;;;;;;;;;17.60;99.90;;;;;;5062498;28;19925;-62
2023/10/11 08:36:33;;;;;;;;;;;17.60;99.90;;;;;;5064314;28;20394;-63
2023/10/11 08:39:05;;;;;;;;;;;17.60;99.90;;;;;;5067365;28;19929;-63
2023/10/11 08:41:31;;;;;;;;;;;17.60;99.90;;;;;;5066887;28;19920;-63
2023/10/11 08:43:59;;;;;;;;;;;17.60;99.90;;;;;;5065085;28;19959;-63
2023/10/11 08:46:28;;;;;;;;;;;17.60;99.90;;;;;;5066082;28;20019;-63
2023/10/11 08:48:54;;;;;;;;;;;17.60;99.90;;;;;;5066165;28;19920;-63
2023/10/11 08:51:22;;;;;;;;;;;17.70;99.90;;;;;;5061926;28;19943;-63
2023/10/11 08:53:54;;;;;;;;;;;17.70;99.90;;;;;;5065223;28;19917;-63
2023/10/11 08:56:23;;;;;;;;;;;17.70;99.90;;;;;;5066458;28;20015;-63
2023/10/11 08:58:51;;;;;;;;;;;17.80;99.90;;;;;;5066017;28;19916;-63
2023/10/11 09:01:17;;;;;;;;;;;17.80;99.90;;;;;;5067049;28;19967;-63
2023/10/11 09:03:43;;;;;;;;;;;17.80;99.90;;;;;;5066866;28;20001;-63
2023/10/11 09:06:19;;;;;;;;;;;17.80;99.90;;;;;;5065277;28;19916;-63
2023/10/11 09:08:47;;;;;;;;;;;17.80;99.90;;;;;;5065957;28;20404;-63
2023/10/11 09:11:29;;;;;;;;;;;17.80;99.90;;;;;;5066884;28;20379;-64
2023/10/11 09:14:11;;;;;;;;;;;17.80;99.90;;;;;;5066136;28;19925;-63
2023/10/11 09:16:37;;;;;;;;;;;17.90;99.90;;;;;;5066701;28;19917;-61
2023/10/11 09:19:06;;;;;;;;;;;17.90;99.90;;;;;;5066119;28;19959;-62
2023/10/11 09:21:38;;;;;;;;;;;17.90;99.90;;;;;;5066316;28;20284;-62
2023/10/11 09:24:25;;;;;;;;;;;17.90;99.90;;;;;;5065079;28;20320;-62
2023/10/11 09:27:12;;;;;;;;;;;17.90;99.90;;;;;;5066099;28;19916;-62
2023/10/11 09:29:38;;;;;;;;;;;17.90;99.90;;;;;;5065394;28;19924;-63
2023/10/11 09:32:05;;;;;;;;;;;18.00;99.90;;;;;;5065666;28;19954;-63
2023/10/11 09:34:31;;;;;;;;;;;17.90;99.90;;;;;;5066406;28;19924;-62
2023/10/11 09:36:58;;;;;;;;;;;18.00;99.90;;;;;;5064921;28;20387;-63
2023/10/11 09:39:28;;;;;;;;;;;18.00;99.90;;;;;;5064662;28;19969;-63
2023/10/11 09:42:02;;;;;;;;;;;18.00;99.90;;;;;;5066113;28;19974;-62
2023/10/11 09:44:30;;;;;;;;;;;18.00;99.90;;;;;;5065503;28;19938;-63
2023/10/11 09:46:57;;;;;;;;;;;18.00;99.90;;;;;;5073189;28;19920;-62
2023/10/11 09:49:25;;;;;;;;;;;18.00;99.90;;;;;;5066241;28;19924;-63
2023/10/11 09:51:52;;;;;;;;;;;18.00;99.90;;;;;;5064526;28;19920;-63
2023/10/11 09:54:18;;;;;;;;;;;18.00;99.90;;;;;;5066748;28;19928;-63
2023/10/11 09:56:54;;;;;;;;;;;18.00;99.90;;;;;;5066619;28;19939;-63
2023/10/11 09:59:34;;;;;;;;;;;18.10;99.90;;;;;;5064294;28;19924;-63
2023/10/11 10:02:06;;;;;;;;;;;18.00;99.90;;;;;;5064564;28;20053;-65
2023/10/11 10:04:50;;;;;;;;;;;18.10;99.90;;;;;;5065832;28;20072;-63
2023/10/11 10:07:23;;;;;;;;;;;18.10;99.90;;;;;;5064770;28;20071;-64
2023/10/11 10:09:52;;;;;;;;;;;18.10;99.90;;;;;;5065431;28;20272;-62
2023/10/11 10:12:22;;;;;;;;;;;18.10;99.90;;;;;;5060998;28;19920;-62
2023/10/11 10:14:50;;;;;;;;;;;18.10;99.90;;;;;;5063592;28;19924;-62
2023/10/11 10:17:16;;;;;;;;;;;18.20;99.90;;;;;;5064059;28;19925;-62
2023/10/11 10:19:45;;;;;;;;;;;18.20;99.90;;;;;;5065786;28;19917;-66
2023/10/11 10:22:21;;;;;;;;;;;18.30;99.90;;;;;;5064523;28;19931;-61
2023/10/11 10:24:47;;;;;;;;;;;18.30;99.90;;;;;;5065291;28;20469;-61
2023/10/11 10:27:25;;;;;;;;;;;18.40;99.90;;;;;;5065313;28;19917;-62
2023/10/11 10:29:54;;;;;;;;;;;18.50;99.90;;;;;;5064044;28;20302;-62
2023/10/11 10:32:20;;;;;;;;;;;18.60;99.90;;;;;;5064405;28;20286;-61
2023/10/11 10:34:46;;;;;;;;;;;18.70;99.90;;;;;;5063473;28;19928;-62
2023/10/11 10:37:34;;;;;;;;;;;18.80;99.90;;;;;;5064114;28;19921;-61
2023/10/11 10:40:18;;;;;;;;;;;18.90;99.90;;;;;;5065626;28;19920;-62
2023/10/11 10:43:04;;;;;;;;;;;19.10;99.90;;;;;;5065019;28;19916;-62
2023/10/11 10:45:30;;;;;;;;;;;19.20;99.90;;;;;;5065346;28;19924;-63
2023/10/11 10:48:14;;;;;;;;;;;19.20;99.90;;;;;;5064305;28;19978;-61
2023/10/11 10:50:46;;;;;;;;;;;19.30;99.90;;;;;;5064941;28;20012;-63
2023/10/11 10:53:14;;;;;;;;;;;19.20;99.90;;;;;;5063306;28;20037;-62
2023/10/11 10:55:43;;;;;;;;;;;19.30;99.90;;;;;;5065174;28;19946;-64
2023/10/11 10:58:19;;;;;;;;;;;19.30;99.90;;;;;;5064050;28;19952;-62
2023/10/11 11:00:47;;;;;;;;;;;19.30;99.90;;;;;;5064627;28;19924;-62
2023/10/11 11:03:19;;;;;;;;;;;19.30;99.90;;;;;;5064631;28;19926;-61
2023/10/11 11:06:11;;;;;;;;;;;19.30;99.90;;;;;;5064601;28;19916;-63
2023/10/11 11:08:39;;;;;;;;;;;19.20;99.90;;;;;;5062644;28;20041;-62
2023/10/11 11:11:25;;;;;;;;;;;19.30;99.90;;;;;;5065471;28;19924;-62
2023/10/11 11:13:52;;;;;;;;;;;19.30;99.90;;;;;;5062302;28;20356;-62
2023/10/11 11:16:19;;;;;;;;;;;19.30;99.90;;;;;;5065499;28;19923;-62
2023/10/11 11:18:45;;;;;;;;;;;19.30;99.90;;;;;;5063155;28;19916;-63
2023/10/11 11:21:21;;;;;;;;;;;19.30;99.90;;;;;;5065348;28;20426;-63
2023/10/11 11:23:51;;;;;;;;;;;19.30;99.90;;;;;;5063436;28;19923;-63
2023/10/11 11:26:18;;;;;;;;;;;19.30;99.90;;;;;;5064493;28;20387;-62
2023/10/11 11:28:46;;;;;;;;;;;19.30;99.90;;;;;;5063666;28;19924;-62
2023/10/11 11:31:30;;;;;;;;;;;19.20;99.90;;;;;;5064588;28;20282;-63
2023/10/11 11:34:12;;;;;;;;;;;19.20;99.90;;;;;;5063284;28;20569;-62
2023/10/11 11:36:40;;;;;;;;;;;19.20;99.90;;;;;;5064703;28;19930;-63
2023/10/11 11:41:53;;;;;;;;;;;19.20;99.90;;;;;;5048264;28;19964;-63
2023/10/11 11:44:22;;;;;;;;;;;19.30;99.90;;;;;;5061671;28;19962;-63
2023/10/11 11:46:49;;;;;;;;;;;19.30;99.90;;;;;;5064813;28;20387;-63
2023/10/11 11:49:16;;;;;;;;;;;19.30;99.90;;;;;;5064125;28;20046;-63
2023/10/11 11:51:41;;;;;;;;;;;19.30;99.90;;;;;;5043768;28;20458;-63
2023/10/11 11:54:10;;;;;;;;;;;19.30;99.90;;;;;;5063112;28;20002;-63
2023/10/11 11:56:35;;;;;;;;;;;19.40;99.90;;;;;;5062973;28;19920;-63
2023/10/11 11:59:01;;;;;;;;;;;19.40;99.90;;;;;;5063565;28;19939;-63
2023/10/11 12:01:26;;;;;;;;;;;19.40;99.90;;;;;;5064502;28;19931;-63
2023/10/11 12:03:54;;;;;;;;;;;19.40;99.90;;;;;;5064338;28;19924;-62
2023/10/11 12:06:22;;;;;;;;;;;19.30;99.90;;;;;;5061844;28;19981;-62
2023/10/11 12:08:57;;;;;;;;;;;19.40;99.90;;;;;;5064665;28;19978;-63
2023/10/11 12:11:28;;;;;;;;;;;19.40;99.90;;;;;;5066202;28;19932;-63
2023/10/11 12:13:56;;;;;;;;;;;19.40;99.90;;;;;;5066592;28;20406;-63
2023/10/11 12:16:25;;;;;;;;;;;19.40;99.90;;;;;;5068715;28;19920;-63
2023/10/11 12:18:59;;;;;;;;;;;19.40;99.90;;;;;;5065457;28;19924;-63
2023/10/11 12:21:25;;;;;;;;;;;19.40;99.90;;;;;;5075397;28;20351;-63
2023/10/11 12:23:51;;;;;;;;;;;19.40;99.90;;;;;;5067266;28;20011;-63
2023/10/11 12:26:17;;;;;;;;;;;19.40;99.90;;;;;;5068034;28;20011;-63
2023/10/11 12:28:43;;;;;;;;;;;19.40;99.90;;;;;;5066586;28;19951;-63
2023/10/11 12:31:08;;;;;;;;;;;19.30;99.90;;;;;;5066257;28;19916;-63
2023/10/11 12:33:34;;;;;;;;;;;19.40;99.90;;;;;;5066747;28;19924;-62
2023/10/11 12:36:01;;;;;;;;;;;19.40;99.90;;;;;;5067650;28;19928;-63
2023/10/11 12:38:26;;;;;;;;;;;19.40;99.90;;;;;;5067012;28;19998;-63
2023/10/11 12:40:52;;;;;;;;;;;19.30;99.90;;;;;;5067688;28;20015;-63
2023/10/11 12:43:22;;;;;;;;;;;19.40;99.90;;;;;;5065306;28;20481;-63
2023/10/11 12:45:48;;;;;;;;;;;19.40;99.90;;;;;;5067131;28;20072;-63
2023/10/11 12:48:15;;;;;;;;;;;19.40;99.90;;;;;;5064747;28;19963;-63
2023/10/11 12:50:41;;;;;;;;;;;19.40;99.90;;;;;;5066494;28;20357;-63
2023/10/11 12:53:10;;;;;;;;;;;19.30;99.90;;;;;;5065760;28;19962;-63
2023/10/11 12:55:41;;;;;;;;;;;19.40;99.90;;;;;;5067473;28;19927;-63
2023/10/11 12:58:08;;;;;;;;;;;19.30;99.90;;;;;;5065905;28;20015;-63
2023/10/11 13:00:37;;;;;;;;;;;19.40;99.90;;;;;;5066183;28;19995;-63
2023/10/11 13:03:15;;;;;;;;;;;19.40;99.90;;;;;;5065799;28;19924;-63
2023/10/11 13:05:43;;;;;;;;;;;19.40;99.90;;;;;;5065388;28;20390;-65
2023/10/11 13:08:11;;;;;;;;;;;19.40;99.90;;;;;;5066079;28;20422;-63
2023/10/11 13:10:45;;;;;;;;;;;19.40;99.90;;;;;;5064573;28;19917;-62
2023/10/11 13:13:13;;;;;;;;;;;19.50;99.90;;;;;;5064893;28;19965;-63
2023/10/11 13:15:39;;;;;;;;;;;19.50;99.90;;;;;;5067085;28;19924;-63
2023/10/11 13:18:09;;;;;;;;;;;19.50;99.90;;;;;;5066015;28;20368;-63
2023/10/11 13:20:36;;;;;;;;;;;19.50;99.90;;;;;;5064910;28;19972;-65
2023/10/11 13:23:02;;;;;;;;;;;19.60;99.90;;;;;;5065141;28;19996;-63
2023/10/11 13:25:27;;;;;;;;;;;19.50;99.90;;;;;;5066289;28;20399;-63
2023/10/11 13:27:54;;;;;;;;;;;19.60;99.90;;;;;;5066861;28;19929;-63
2023/10/11 13:30:22;;;;;;;;;;;19.60;99.90;;;;;;5065852;28;20336;-63
2023/10/11 13:32:50;;;;;;;;;;;19.60;99.90;;;;;;5065709;28;19938;-63
2023/10/11 13:35:15;;;;;;;;;;;19.50;99.90;;;;;;5066251;28;19972;-63
2023/10/11 13:37:46;;;;;;;;;;;19.50;99.90;;;;;;5066501;28;20647;-63
2023/10/11 13:40:16;;;;;;;;;;;19.60;99.90;;;;;;5064992;28;19920;-63
2023/10/11 13:42:43;;;;;;;;;;;19.60;99.90;;;;;;5066434;28;20346;-63
2023/10/11 13:45:14;;;;;;;;;;;19.60;99.90;;;;;;5065548;28;19972;-63
2023/10/11 13:47:41;;;;;;;;;;;19.70;99.90;;;;;;5065533;28;19985;-65
2023/10/11 13:50:09;;;;;;;;;;;19.60;99.90;;;;;;5064711;28;20362;-63
2023/10/11 13:52:39;;;;;;;;;;;19.70;99.90;;;;;;5064867;28;20007;-63
2023/10/11 13:55:11;;;;;;;;;;;19.80;99.90;;;;;;5065940;28;19920;-63
2023/10/11 13:57:37;;;;;;;;;;;19.70;99.90;;;;;;5064989;28;20105;-61
2023/10/11 14:01:00;;;;;;;;;;;19.80;99.90;;;;;;5064398;28;20448;-64
2023/10/11 14:02:51;;;;;;;;;;;19.80;99.90;;;;;;5063740;28;20586;-63
2023/10/11 14:05:18;;;;;;;;;;;19.80;99.90;;;;;;5065416;28;19920;-63
2023/10/11 14:07:50;;;;;;;;;;;19.80;99.90;;;;;;5064370;28;19924;-63
2023/10/11 14:10:16;;;;;;;;;;;19.80;99.90;;;;;;5065314;28;19958;-63
2023/10/11 14:12:45;;;;;;;;;;;19.80;99.90;;;;;;5065795;28;20008;-63
2023/10/11 14:15:22;;;;;;;;;;;19.80;99.90;;;;;;5063712;28;20484;-63
2023/10/11 14:17:49;;;;;;;;;;;19.80;99.90;;;;;;5065388;28;19932;-63
2023/10/11 14:20:24;;;;;;;;;;;19.90;99.90;;;;;;5063940;28;20007;-63
2023/10/11 14:22:51;;;;;;;;;;;19.80;99.90;;;;;;5065277;28;19920;-63
2023/10/11 14:25:20;;;;;;;;;;;19.80;99.90;;;;;;5063572;28;19925;-63
2023/10/11 14:27:46;;;;;;;;;;;19.80;99.90;;;;;;5061305;28;20291;-63
2023/10/11 14:30:15;;;;;;;;;;;19.80;99.90;;;;;;5059901;28;19931;-63
2023/10/11 14:32:45;;;;;;;;;;;19.80;99.90;;;;;;5056550;28;19924;-63
2023/10/11 14:35:11;;;;;;;;;;;19.80;99.90;;;;;;5059371;28;19935;-63
2023/10/11 14:37:40;;;;;;;;;;;19.80;99.90;;;;;;5062218;28;19924;-63
2023/10/11 14:40:14;;;;;;;;;;;19.80;99.90;;;;;;5055381;28;20448;-64
2023/10/11 14:42:46;;;;;;;;;;;19.70;99.90;;;;;;5039816;28;20007;-64
2023/10/11 14:45:13;;;;;;;;;;;19.70;99.90;;;;;;5053240;28;20081;-64
2023/10/11 14:47:39;;;;;;;;;;;19.80;99.90;;;;;;5055231;28;19928;-64
2023/10/11 14:50:11;;;;;;;;;;;19.70;99.90;;;;;;5038808;28;19970;-63
2023/10/11 14:52:39;;;;;;;;;;;19.70;99.90;;;;;;5056436;28;20010;-63
2023/10/11 14:55:05;;;;;;;;;;;19.70;99.90;;;;;;5057560;28;19967;-63
2023/10/11 14:57:31;;;;;;;;;;;19.70;99.90;;;;;;5055961;28;19924;-65
2023/10/11 14:59:57;;;;;;;;;;;19.60;99.90;;;;;;5056754;28;19943;-63
2023/10/11 15:02:22;;;;;;;;;;;19.60;99.90;;;;;;5056435;28;20388;-63
2023/10/11 15:04:50;;;;;;;;;;;19.60;99.90;;;;;;5056891;28;20015;-63
2023/10/11 15:07:18;;;;;;;;;;;19.60;99.90;;;;;;5057138;28;19931;-64
2023/10/11 15:09:46;;;;;;;;;;;19.60;99.90;;;;;;5053961;28;19920;-63
2023/10/11 15:12:13;;;;;;;;;;;19.60;99.90;;;;;;5055056;28;19916;-63
2023/10/11 15:14:39;;;;;;;;;;;19.50;99.90;;;;;;5057637;28;19928;-63
2023/10/11 15:17:05;;;;;;;;;;;19.50;99.90;;;;;;5056107;28;20852;-63
2023/10/11 15:19:35;;;;;;;;;;;19.50;99.90;;;;;;5057231;28;19927;-63
2023/10/11 15:22:04;;;;;;;;;;;19.50;99.90;;;;;;5056234;28;20327;-63